Time;durP1;ratioP1;P1;durP2;ratioP2;P2;SDS_P1;SDS_P2;PMS_P1;PMS_P2;Temp;Humidity;BMP_temperature;BMP_pressure;BME280_temperature;BME280_humidity;BME280_pressure;Samples;Min_cycle;Max_cycle;Signal;HPM_P1;HPM_P2
2023/12/05 00:00:34;;;;;;;13.48;8.45;;;1.30;99.90;;;;;;5031999;28;20061;-78
2023/12/05 00:03:01;;;;;;;13.68;7.75;;;1.30;99.90;;;;;;5028592;28;20501;-78
2023/12/05 00:05:27;;;;;;;14.75;9.00;;;1.30;99.90;;;;;;5026993;28;20489;-77
2023/12/05 00:07:52;;;;;;;13.75;8.73;;;1.30;99.90;;;;;;5035389;28;20065;-77
2023/12/05 00:10:19;;;;;;;15.20;8.98;;;1.30;99.90;;;;;;5029004;28;20124;-77
2023/12/05 00:12:44;;;;;;;14.45;8.85;;;1.30;99.90;;;;;;5020953;28;20049;-77
2023/12/05 00:15:10;;;;;;;14.50;9.00;;;1.30;99.90;;;;;;5033116;28;20032;-77
2023/12/05 00:17:36;;;;;;;12.57;7.60;;;1.30;99.90;;;;;;5044235;28;20029;-77
2023/12/05 00:20:03;;;;;;;14.60;8.88;;;1.30;99.90;;;;;;5029716;28;20047;-77
2023/12/05 00:22:28;;;;;;;14.90;8.73;;;1.30;99.90;;;;;;5023480;28;20044;-77
2023/12/05 00:24:54;;;;;;;15.27;9.23;;;1.30;99.90;;;;;;5043042;28;20049;-78
2023/12/05 00:27:20;;;;;;;14.07;8.70;;;1.40;99.90;;;;;;5045494;28;20076;-77
2023/12/05 00:29:47;;;;;;;14.90;8.35;;;1.30;99.90;;;;;;5022174;28;20090;-77
2023/12/05 00:32:13;;;;;;;14.30;8.82;;;1.30;99.90;;;;;;5052235;28;20089;-78
2023/12/05 00:34:38;;;;;;;15.13;9.20;;;1.30;99.90;;;;;;5030824;28;20037;-77
2023/12/05 00:37:04;;;;;;;16.38;9.93;;;1.20;99.90;;;;;;5053129;28;20037;-78
2023/12/05 00:39:30;;;;;;;15.43;9.40;;;1.20;99.90;;;;;;5053243;28;20044;-77
2023/12/05 00:41:55;;;;;;;15.32;9.15;;;1.20;99.90;;;;;;5052273;28;20041;-77
2023/12/05 00:44:21;;;;;;;16.92;11.02;;;1.20;99.90;;;;;;5064884;28;20073;-77
2023/12/05 00:46:46;;;;;;;16.20;11.20;;;1.20;99.90;;;;;;5046398;28;20126;-77
2023/12/05 00:49:12;;;;;;;15.32;9.60;;;1.20;99.90;;;;;;5033211;28;20042;-77
2023/12/05 00:51:38;;;;;;;17.40;11.38;;;1.20;99.90;;;;;;5035481;28;20045;-78
2023/12/05 00:54:04;;;;;;;16.27;9.80;;;1.10;99.90;;;;;;5036317;28;20029;-78
2023/12/05 00:56:29;;;;;;;17.83;11.40;;;1.30;99.90;;;;;;5027847;28;20040;-78
2023/12/05 00:58:55;;;;;;;18.55;12.32;;;1.20;99.90;;;;;;5052468;28;20132;-77
2023/12/05 01:01:20;;;;;;;16.38;12.20;;;1.00;99.90;;;;;;5033411;28;20033;-77
2023/12/05 01:03:46;;;;;;;17.58;12.10;;;1.00;99.90;;;;;;5049323;28;20052;-77
2023/12/05 01:06:12;;;;;;;15.57;9.75;;;1.00;99.90;;;;;;5030361;28;20036;-78
2023/12/05 01:08:37;;;;;;;14.05;9.43;;;1.10;99.90;;;;;;5052842;28;20044;-78
2023/12/05 01:11:04;;;;;;;18.83;12.50;;;1.10;99.90;;;;;;5045420;28;20083;-78
2023/12/05 01:13:30;;;;;;;16.40;10.57;;;1.10;99.90;;;;;;5049071;28;20502;-78
2023/12/05 01:15:55;;;;;;;17.88;11.88;;;1.10;99.90;;;;;;5038302;28;20076;-77
2023/12/05 01:18:21;;;;;;;17.77;11.57;;;1.10;99.90;;;;;;5052423;28;20037;-78
2023/12/05 01:20:47;;;;;;;14.98;9.55;;;1.10;99.90;;;;;;5033145;28;20393;-77
2023/12/05 01:23:12;;;;;;;18.92;13.40;;;1.20;99.90;;;;;;5032460;28;20033;-77
2023/12/05 01:25:38;;;;;;;18.13;12.35;;;1.10;99.90;;;;;;5057210;28;20114;-78
2023/12/05 01:28:04;;;;;;;18.23;11.50;;;1.10;99.90;;;;;;5050416;28;20124;-77
2023/12/05 01:30:30;;;;;;;15.98;11.65;;;1.10;99.90;;;;;;5051786;28;20048;-78
2023/12/05 01:32:55;;;;;;;17.77;11.50;;;1.00;99.90;;;;;;5032262;28;20443;-78
2023/12/05 01:35:21;;;;;;;21.02;15.15;;;1.00;99.90;;;;;;5049118;28;20095;-77
2023/12/05 01:37:48;;;;;;;16.90;11.52;;;1.00;99.90;;;;;;5048745;28;20133;-78
2023/12/05 01:40:13;;;;;;;18.52;12.15;;;0.90;99.90;;;;;;5015777;28;20107;-78
2023/12/05 01:42:39;;;;;;;16.00;10.40;;;0.90;99.90;;;;;;5050904;28;20036;-78
2023/12/05 01:45:06;;;;;;;18.70;12.60;;;1.00;99.90;;;;;;5052292;28;20044;-78
2023/12/05 01:47:34;;;;;;;18.38;11.43;;;1.00;99.90;;;;;;5016099;28;20033;-77
2023/12/05 01:50:00;;;;;;;17.40;11.40;;;1.00;99.90;;;;;;5031940;28;20044;-78
2023/12/05 01:52:26;;;;;;;13.20;7.38;;;0.90;99.90;;;;;;5049404;28;20120;-78
2023/12/05 01:54:52;;;;;;;17.90;12.20;;;1.00;99.90;;;;;;5035224;28;20048;-78
2023/12/05 01:57:19;;;;;;;19.85;12.48;;;1.00;99.90;;;;;;5068096;28;20041;-78
2023/12/05 01:59:45;;;;;;;20.00;12.25;;;1.00;99.90;;;;;;5051036;28;20412;-78
2023/12/05 02:02:12;;;;;;;17.58;11.75;;;1.00;99.90;;;;;;5043291;28;20041;-78
2023/12/05 02:04:39;;;;;;;17.85;11.95;;;1.00;99.90;;;;;;5033435;28;20512;-79
2023/12/05 02:07:06;;;;;;;19.30;12.88;;;1.00;99.90;;;;;;5015823;28;20441;-79
2023/12/05 02:09:32;;;;;;;18.23;12.43;;;0.90;99.90;;;;;;5052913;28;20126;-78
2023/12/05 02:11:58;;;;;;;18.58;11.73;;;0.90;99.90;;;;;;5054138;28;20076;-79
2023/12/05 02:14:24;;;;;;;18.35;11.88;;;0.90;99.90;;;;;;5039159;28;20529;-79
2023/12/05 02:17:24;;;;;;;20.00;13.38;;;1.00;99.90;;;;;;5055052;28;20500;-80
2023/12/05 02:19:56;;;;;;;18.15;11.50;;;0.90;99.90;;;;;;5021518;28;20049;-78
2023/12/05 02:22:40;;;;;;;;;;;0.90;99.90;;;;;;5028807;28;20033;-80
2023/12/05 02:25:40;;;;;;;17.40;11.40;;;0.90;99.90;;;;;;5036001;28;19932;-79
2023/12/05 02:28:06;;;;;;;18.52;11.60;;;0.90;99.90;;;;;;5035635;28;20041;-80
2023/12/05 02:30:32;;;;;;;17.65;11.90;;;0.90;99.90;;;;;;5037301;28;20550;-80
2023/12/05 02:32:58;;;;;;;18.17;12.38;;;0.90;99.90;;;;;;5030036;28;20045;-80
2023/12/05 02:35:24;;;;;;;19.27;11.40;;;0.90;99.90;;;;;;5055524;28;20037;-81
2023/12/05 02:38:17;;;;;;;18.75;12.63;;;0.90;99.90;;;;;;5055470;28;20037;-80
2023/12/05 02:40:50;;;;;;;17.42;11.43;;;0.90;99.90;;;;;;5035395;28;20037;-81
2023/12/05 02:43:24;;;;;;;19.60;13.80;;;0.90;99.90;;;;;;5051210;28;20082;-81
2023/12/05 02:45:52;;;;;;;18.70;11.32;;;0.90;99.90;;;;;;5055304;28;20073;-81
2023/12/05 02:48:19;;;;;;;18.77;12.20;;;0.80;99.90;;;;;;5054521;28;20052;-81
2023/12/05 02:50:45;;;;;;;17.98;11.43;;;0.90;99.90;;;;;;5055496;28;20099;-82
2023/12/05 02:53:11;;;;;;;19.23;11.90;;;0.80;99.90;;;;;;5051543;28;20052;-81
2023/12/05 02:55:39;;;;;;;16.55;11.00;;;0.80;99.90;;;;;;5038558;28;20428;-81
2023/12/05 02:58:04;;;;;;;16.15;10.25;;;0.90;99.90;;;;;;5055075;28;20556;-82
2023/12/05 03:00:30;;;;;;;18.30;12.43;;;0.90;99.90;;;;;;5053499;28;20135;-81
2023/12/05 03:02:55;;;;;;;17.52;10.68;;;0.80;99.90;;;;;;5029732;28;20040;-81
2023/12/05 03:05:21;;;;;;;18.30;11.55;;;0.90;99.90;;;;;;5069634;28;20119;-81
2023/12/05 03:07:47;;;;;;;17.77;12.45;;;0.90;99.90;;;;;;5054349;28;20437;-81
2023/12/05 03:10:12;;;;;;;18.40;10.98;;;0.90;99.90;;;;;;5038179;28;20037;-81
2023/12/05 03:12:38;;;;;;;17.70;11.30;;;0.80;99.90;;;;;;5037478;28;20388;-81
2023/12/05 03:15:04;;;;;;;18.23;12.60;;;0.80;99.90;;;;;;5053230;28;20037;-82
2023/12/05 03:17:30;;;;;;;19.08;12.02;;;0.90;99.90;;;;;;5054698;28;20561;-81
2023/12/05 03:19:55;;;;;;;17.90;11.65;;;0.90;99.90;;;;;;5053148;28;20041;-81
2023/12/05 03:22:21;;;;;;;17.27;12.38;;;0.80;99.90;;;;;;5054612;28;20075;-81
2023/12/05 03:24:46;;;;;;;18.33;12.05;;;0.90;99.90;;;;;;5047909;28;20116;-81
2023/12/05 03:27:12;;;;;;;18.48;11.10;;;0.70;99.90;;;;;;5028291;28;20041;-81
2023/12/05 03:29:38;;;;;;;17.38;11.93;;;0.80;99.90;;;;;;5050048;28;20439;-81
2023/12/05 03:32:04;;;;;;;19.75;13.75;;;0.80;99.90;;;;;;5034598;28;20135;-81
2023/12/05 03:34:30;;;;;;;19.25;13.07;;;0.70;99.90;;;;;;5034925;28;20047;-81
2023/12/05 03:36:55;;;;;;;18.52;12.30;;;0.70;99.90;;;;;;5036023;28;20025;-81
2023/12/05 03:39:21;;;;;;;19.88;12.63;;;0.80;99.90;;;;;;5052885;28;20048;-81
2023/12/05 03:41:47;;;;;;;19.27;12.45;;;0.70;99.90;;;;;;5036516;28;20041;-81
2023/12/05 03:44:13;;;;;;;20.35;13.32;;;0.80;99.90;;;;;;5037738;28;20045;-81
2023/12/05 03:46:38;;;;;;;19.63;12.80;;;0.70;99.90;;;;;;5036228;28;20139;-81
2023/12/05 03:49:04;;;;;;;21.10;14.35;;;0.70;99.90;;;;;;5053327;28;20045;-81
2023/12/05 03:51:30;;;;;;;19.35;12.65;;;0.80;99.90;;;;;;5053613;28;20562;-81
2023/12/05 03:53:56;;;;;;;19.30;12.80;;;0.70;99.90;;;;;;5033297;28;20045;-81
2023/12/05 03:56:21;;;;;;;21.20;13.70;;;0.80;99.90;;;;;;5023875;28;20041;-81
2023/12/05 03:58:47;;;;;;;17.08;10.05;;;0.70;99.90;;;;;;5032896;28;20299;-81
2023/12/05 04:01:13;;;;;;;19.77;14.65;;;0.90;99.90;;;;;;5053909;28;20515;-81
2023/12/05 04:03:39;;;;;;;22.50;12.88;;;0.90;99.90;;;;;;5049036;28;20123;-81
2023/12/05 04:06:05;;;;;;;18.35;11.95;;;0.90;99.90;;;;;;5017217;28;20046;-81
2023/12/05 04:08:30;;;;;;;17.98;11.98;;;0.90;99.90;;;;;;5052496;28;20489;-81
2023/12/05 04:10:56;;;;;;;20.10;13.30;;;0.80;99.90;;;;;;5037221;28;20094;-81
2023/12/05 04:13:21;;;;;;;20.45;12.82;;;0.80;99.90;;;;;;5051834;28;20420;-81
2023/12/05 04:15:47;;;;;;;14.93;9.75;;;0.80;99.90;;;;;;5063342;28;20083;-81
2023/12/05 04:18:13;;;;;;;21.60;14.27;;;0.80;99.90;;;;;;5025709;28;20111;-81
2023/12/05 04:20:38;;;;;;;20.40;13.35;;;0.90;99.90;;;;;;5033606;28;20046;-81
2023/12/05 04:23:04;;;;;;;19.55;11.80;;;0.90;99.90;;;;;;5034276;28;20041;-81
2023/12/05 04:25:29;;;;;;;20.13;13.15;;;0.90;99.90;;;;;;5050550;28;20398;-81
2023/12/05 04:27:55;;;;;;;19.33;12.77;;;0.90;99.90;;;;;;5034517;28;20079;-81
2023/12/05 04:30:21;;;;;;;18.63;12.43;;;0.90;99.90;;;;;;5053251;28;20119;-81
2023/12/05 04:32:46;;;;;;;18.52;11.48;;;0.80;99.90;;;;;;5052135;28;20138;-81
2023/12/05 04:35:12;;;;;;;19.25;12.70;;;0.90;99.90;;;;;;5035262;28;20040;-81
2023/12/05 04:37:38;;;;;;;21.70;14.02;;;0.90;99.90;;;;;;5051846;28;20048;-81
2023/12/05 04:40:04;;;;;;;21.45;13.65;;;0.80;99.90;;;;;;5035227;28;20119;-81
2023/12/05 04:42:30;;;;;;;20.52;13.23;;;0.90;99.90;;;;;;5035115;28;20032;-81
2023/12/05 04:44:55;;;;;;;19.75;12.70;;;0.90;99.90;;;;;;5035454;28;20033;-81
2023/12/05 04:47:21;;;;;;;21.70;13.45;;;0.90;99.90;;;;;;5018485;28;20072;-81
2023/12/05 04:49:47;;;;;;;20.50;14.27;;;0.90;99.90;;;;;;5034982;28;20397;-81
2023/12/05 04:52:12;;;;;;;22.92;15.07;;;0.80;99.90;;;;;;5036157;28;20557;-81
2023/12/05 04:54:38;;;;;;;20.83;14.02;;;0.80;99.90;;;;;;5030512;28;20099;-81
2023/12/05 04:57:04;;;;;;;24.63;14.98;;;0.80;99.90;;;;;;5032936;28;20532;-81
2023/12/05 04:59:29;;;;;;;21.05;13.85;;;0.80;99.90;;;;;;5051498;28;20048;-81
2023/12/05 05:01:55;;;;;;;21.30;14.38;;;0.80;99.90;;;;;;5050312;28;20041;-80
2023/12/05 05:04:21;;;;;;;21.05;14.18;;;0.80;99.90;;;;;;5049438;28;20038;-81
2023/12/05 05:06:46;;;;;;;21.95;15.30;;;0.80;99.90;;;;;;5046307;28;20037;-81
2023/12/05 05:09:12;;;;;;;24.98;16.33;;;0.70;99.90;;;;;;5032733;28;20046;-81
2023/12/05 05:11:39;;;;;;;22.17;14.48;;;0.70;99.90;;;;;;5034073;28;20405;-81
2023/12/05 05:14:05;;;;;;;22.60;14.25;;;0.70;99.90;;;;;;5033918;28;20045;-81
2023/12/05 05:16:30;;;;;;;22.13;13.93;;;0.70;99.90;;;;;;5032566;28;20041;-81
2023/12/05 05:18:56;;;;;;;23.55;15.00;;;0.70;99.90;;;;;;5034251;28;20036;-81
2023/12/05 05:21:21;;;;;;;25.27;16.05;;;0.70;99.90;;;;;;5051239;28;20056;-81
2023/12/05 05:23:47;;;;;;;23.48;14.98;;;0.70;99.90;;;;;;5033563;28;20041;-81
2023/12/05 05:26:14;;;;;;;19.95;13.13;;;0.70;99.90;;;;;;5052355;28;20043;-81
2023/12/05 05:28:39;;;;;;;22.23;13.18;;;0.70;99.90;;;;;;5047125;28;20124;-81
2023/12/05 05:31:05;;;;;;;22.02;14.27;;;0.80;99.90;;;;;;5050620;28;20205;-81
2023/12/05 05:33:31;;;;;;;24.33;15.73;;;0.80;99.90;;;;;;5025273;28;20068;-81
2023/12/05 05:35:56;;;;;;;24.05;15.85;;;0.80;99.90;;;;;;5050955;28;20044;-82
2023/12/05 05:38:22;;;;;;;21.77;14.07;;;0.80;99.90;;;;;;5051369;28;20052;-81
2023/12/05 05:40:48;;;;;;;23.70;15.35;;;0.80;99.90;;;;;;5023465;28;20469;-81
2023/12/05 05:43:13;;;;;;;20.92;13.05;;;0.80;99.90;;;;;;5053302;28;20037;-81
2023/12/05 05:45:39;;;;;;;22.00;13.98;;;0.80;99.90;;;;;;5052269;28;20055;-81
2023/12/05 05:48:05;;;;;;;21.58;13.50;;;0.80;99.90;;;;;;5025745;28;20033;-81
2023/12/05 05:50:31;;;;;;;25.23;15.32;;;0.80;99.90;;;;;;5052109;28;20102;-81
2023/12/05 05:52:56;;;;;;;21.85;14.18;;;0.80;99.90;;;;;;5050465;28;20041;-81
2023/12/05 05:55:24;;;;;;;21.17;13.05;;;0.80;99.90;;;;;;5034272;28;20033;-81
2023/12/05 05:57:50;;;;;;;16.20;9.02;;;0.80;99.90;;;;;;5049732;28;20045;-81
2023/12/05 06:00:17;;;;;;;21.27;13.43;;;0.90;99.90;;;;;;5051719;28;20049;-82
2023/12/05 06:02:44;;;;;;;25.05;16.35;;;1.00;99.90;;;;;;5032365;28;20086;-81
2023/12/05 06:05:09;;;;;;;23.30;14.07;;;0.90;99.90;;;;;;5031797;28;20124;-81
2023/12/05 06:07:36;;;;;;;21.67;12.05;;;0.80;99.90;;;;;;5015535;28;20136;-81
2023/12/05 06:10:03;;;;;;;22.98;14.63;;;0.90;99.90;;;;;;5050758;28;20116;-81
2023/12/05 06:12:29;;;;;;;22.70;13.73;;;0.80;99.90;;;;;;5034012;28;20133;-81
2023/12/05 06:14:55;;;;;;;20.58;12.20;;;0.80;99.90;;;;;;5038783;28;20099;-81
2023/12/05 06:17:20;;;;;;;24.30;14.25;;;0.90;99.90;;;;;;5031776;28;20478;-82
2023/12/05 06:19:46;;;;;;;21.13;12.93;;;0.80;99.90;;;;;;5035100;28;20042;-81
2023/12/05 06:22:12;;;;;;;22.90;14.43;;;0.90;99.90;;;;;;5031983;28;20038;-81
2023/12/05 06:24:38;;;;;;;22.13;13.65;;;0.80;99.90;;;;;;5040095;28;20041;-81
2023/12/05 06:27:04;;;;;;;23.50;14.50;;;0.90;99.90;;;;;;5034472;28;20370;-81
2023/12/05 06:29:29;;;;;;;23.75;14.35;;;0.90;99.90;;;;;;5050207;28;20051;-81
2023/12/05 06:31:55;;;;;;;21.63;14.07;;;0.90;99.90;;;;;;5033973;28;20124;-81
2023/12/05 06:34:22;;;;;;;21.63;12.73;;;0.90;99.90;;;;;;5039643;28;20033;-81
2023/12/05 06:36:47;;;;;;;22.27;13.23;;;0.90;99.90;;;;;;5050266;28;20485;-81
2023/12/05 06:39:13;;;;;;;20.30;12.93;;;1.00;99.90;;;;;;5051472;28;20128;-81
2023/12/05 06:41:38;;;;;;;22.08;13.05;;;0.90;99.90;;;;;;5032408;28;20037;-81
2023/12/05 06:44:04;;;;;;;21.38;13.35;;;1.00;99.90;;;;;;5061355;28;20417;-81
2023/12/05 06:46:30;;;;;;;20.75;13.55;;;0.90;99.90;;;;;;5058070;28;20467;-81
2023/12/05 06:48:57;;;;;;;22.02;13.35;;;0.90;99.90;;;;;;5051285;28;20071;-81
2023/12/05 06:51:23;;;;;;;21.23;13.15;;;0.90;99.90;;;;;;5034294;28;20041;-81
2023/12/05 06:53:49;;;;;;;21.92;14.13;;;0.90;99.90;;;;;;5046588;28;20513;-81
2023/12/05 06:56:16;;;;;;;23.25;15.10;;;0.90;99.90;;;;;;5022267;28;20456;-81
2023/12/05 06:58:42;;;;;;;24.83;15.55;;;0.80;99.90;;;;;;5037982;28;20084;-80
2023/12/05 07:01:08;;;;;;;21.55;12.82;;;0.80;99.90;;;;;;5019465;28;20045;-81
2023/12/05 07:03:34;;;;;;;21.92;12.07;;;0.90;99.90;;;;;;5036418;28;20041;-80
2023/12/05 07:05:59;;;;;;;22.75;14.30;;;0.90;99.90;;;;;;5018695;28;20496;-81
2023/12/05 07:08:26;;;;;;;20.15;11.38;;;0.90;99.90;;;;;;5053115;28;20041;-80
2023/12/05 07:10:52;;;;;;;24.60;14.38;;;0.90;99.90;;;;;;5035283;28;20040;-81
2023/12/05 07:13:18;;;;;;;22.90;13.25;;;0.90;99.90;;;;;;5051183;28;20045;-81
2023/12/05 07:15:43;;;;;;;22.30;13.50;;;0.90;99.90;;;;;;5035320;28;20068;-81
2023/12/05 07:18:09;;;;;;;22.38;12.82;;;1.00;99.90;;;;;;5056864;28;20037;-81
2023/12/05 07:20:35;;;;;;;24.77;14.65;;;0.90;99.90;;;;;;5036687;28;20036;-81
2023/12/05 07:23:01;;;;;;;22.42;13.70;;;0.90;99.90;;;;;;5052597;28;20032;-81
2023/12/05 07:25:26;;;;;;;23.90;14.63;;;0.90;99.90;;;;;;5053039;28;20041;-80
2023/12/05 07:27:52;;;;;;;22.30;13.40;;;0.90;99.90;;;;;;5052941;28;20040;-81
2023/12/05 07:30:17;;;;;;;23.95;15.50;;;0.90;99.90;;;;;;5037995;28;20029;-81
2023/12/05 07:32:43;;;;;;;22.58;13.90;;;0.90;99.90;;;;;;5051284;28;20044;-81
2023/12/05 07:35:09;;;;;;;23.50;13.32;;;0.90;99.90;;;;;;5031257;28;20072;-81
2023/12/05 07:37:34;;;;;;;22.27;13.68;;;0.90;99.90;;;;;;5048078;28;20041;-81
2023/12/05 07:40:00;;;;;;;22.35;13.18;;;0.90;99.90;;;;;;5035160;28;20029;-80
2023/12/05 07:42:26;;;;;;;25.15;14.27;;;0.90;99.90;;;;;;5070151;28;20033;-80
2023/12/05 07:44:51;;;;;;;22.98;14.02;;;1.00;99.90;;;;;;5067655;28;20041;-80
2023/12/05 07:47:17;;;;;;;20.15;12.52;;;1.00;99.90;;;;;;5054119;28;20071;-81
2023/12/05 07:49:47;;;;;;;22.42;12.77;;;1.00;99.90;;;;;;5052084;28;20803;-81
2023/12/05 07:52:13;;;;;;;22.67;13.38;;;1.00;99.90;;;;;;5051461;28;20047;-80
2023/12/05 07:54:38;;;;;;;21.17;13.38;;;1.00;99.90;;;;;;5035302;28;20036;-81
2023/12/05 07:57:04;;;;;;;22.45;12.75;;;1.00;99.90;;;;;;5028499;28;20068;-82
2023/12/05 07:59:30;;;;;;;23.88;15.48;;;1.00;99.90;;;;;;5031314;28;20049;-81
2023/12/05 08:01:55;;;;;;;24.40;14.77;;;0.90;99.90;;;;;;5034643;28;20076;-81
2023/12/05 08:04:21;;;;;;;22.77;13.25;;;0.90;99.90;;;;;;5048561;28;20049;-80
2023/12/05 08:06:48;;;;;;;21.95;13.32;;;0.90;99.90;;;;;;5034221;28;20079;-81
2023/12/05 08:09:14;;;;;;;23.50;13.75;;;1.00;99.90;;;;;;5040634;28;20086;-80
2023/12/05 08:11:39;;;;;;;20.50;12.60;;;1.00;99.90;;;;;;5056515;28;20041;-81
2023/12/05 08:14:05;;;;;;;20.70;11.55;;;1.00;99.90;;;;;;5052718;28;20094;-80
2023/12/05 08:16:30;;;;;;;23.35;13.27;;;1.10;99.90;;;;;;5042288;28;20033;-80
2023/12/05 08:18:56;;;;;;;25.08;15.07;;;1.00;99.90;;;;;;5048376;28;20065;-81
2023/12/05 08:21:22;;;;;;;24.00;13.13;;;1.00;99.90;;;;;;5021264;28;20123;-81
2023/12/05 08:23:48;;;;;;;24.83;15.48;;;0.90;99.90;;;;;;5048526;28;20059;-81
2023/12/05 08:26:14;;;;;;;18.42;10.05;;;0.90;99.90;;;;;;5053167;28;20041;-81
2023/12/05 08:28:39;;;;;;;22.42;13.90;;;0.90;99.90;;;;;;5036612;28;20045;-81
2023/12/05 08:31:06;;;;;;;23.90;14.63;;;1.00;99.90;;;;;;5066769;28;20143;-81
2023/12/05 08:33:32;;;;;;;23.42;14.70;;;1.00;99.90;;;;;;5034916;28;20390;-81
2023/12/05 08:35:58;;;;;;;22.77;14.57;;;1.00;99.90;;;;;;5049967;28;20040;-81
2023/12/05 08:38:24;;;;;;;25.33;14.73;;;1.00;99.90;;;;;;5051989;28;20041;-81
2023/12/05 08:40:51;;;;;;;25.85;14.80;;;1.00;99.90;;;;;;5045464;28;20779;-81
2023/12/05 08:43:16;;;;;;;24.02;14.63;;;1.00;99.90;;;;;;5034960;28;20080;-80
2023/12/05 08:45:43;;;;;;;24.83;14.88;;;1.00;99.90;;;;;;5035659;28;20100;-81
2023/12/05 08:48:08;;;;;;;25.73;15.77;;;1.00;99.90;;;;;;5035688;28;20040;-80
2023/12/05 08:50:34;;;;;;;25.55;15.43;;;0.90;99.90;;;;;;5050550;28;20404;-81
2023/12/05 08:53:00;;;;;;;25.48;14.35;;;0.90;99.90;;;;;;5059552;28;20166;-81
2023/12/05 08:55:26;;;;;;;23.23;15.15;;;1.00;99.90;;;;;;5030577;28;20037;-80
2023/12/05 08:57:52;;;;;;;24.90;15.88;;;1.00;99.90;;;;;;5031035;28;20132;-81
2023/12/05 09:00:18;;;;;;;24.92;15.98;;;1.10;99.90;;;;;;5036064;28;20052;-81
2023/12/05 09:02:44;;;;;;;26.00;16.40;;;1.10;99.90;;;;;;5017667;28;20049;-81
2023/12/05 09:05:10;;;;;;;25.98;15.10;;;1.00;99.90;;;;;;5032886;28;20045;-82
2023/12/05 09:07:35;;;;;;;23.75;15.40;;;1.10;99.90;;;;;;5030808;28;20029;-81
2023/12/05 09:10:01;;;;;;;25.83;14.75;;;1.10;99.90;;;;;;5051092;28;20095;-81
2023/12/05 09:12:27;;;;;;;24.50;13.32;;;1.10;99.90;;;;;;5023743;28;20041;-81
2023/12/05 09:14:52;;;;;;;27.63;15.88;;;1.10;99.90;;;;;;5050877;28;20039;-80
2023/12/05 09:17:18;;;;;;;25.33;15.00;;;1.10;99.90;;;;;;5051634;28;20040;-81
2023/12/05 09:19:44;;;;;;;24.33;15.73;;;1.10;99.90;;;;;;5060248;28;20135;-81
2023/12/05 09:22:10;;;;;;;22.73;13.65;;;1.20;99.90;;;;;;5063085;28;20135;-81
2023/12/05 09:24:35;;;;;;;20.65;12.65;;;1.10;99.90;;;;;;5016993;28;20040;-81
2023/12/05 09:27:01;;;;;;;23.85;14.93;;;1.20;99.90;;;;;;5026333;28;20098;-82
2023/12/05 09:29:27;;;;;;;24.88;15.57;;;1.20;99.90;;;;;;5030418;28;20936;-81
2023/12/05 09:31:53;;;;;;;25.92;15.30;;;1.20;99.90;;;;;;5026984;28;20043;-80
2023/12/05 09:34:19;;;;;;;24.77;14.98;;;1.20;99.90;;;;;;5042720;28;20045;-81
2023/12/05 09:36:44;;;;;;;28.70;16.25;;;1.20;99.90;;;;;;5040892;28;20534;-80
2023/12/05 09:39:10;;;;;;;24.95;15.45;;;1.20;99.90;;;;;;5031118;28;20052;-81
2023/12/05 09:41:46;;;;;;;24.55;13.35;;;1.20;99.90;;;;;;5043251;28;20485;-81
2023/12/05 09:44:13;;;;;;;25.63;17.05;;;1.30;99.90;;;;;;5029119;28;20045;-81
2023/12/05 09:46:46;;;;;;;28.80;16.48;;;1.10;99.90;;;;;;5028465;28;20036;-81
2023/12/05 09:49:14;;;;;;;26.02;15.93;;;1.20;99.90;;;;;;5045784;28;20454;-81
2023/12/05 09:51:41;;;;;;;25.98;15.40;;;1.20;99.90;;;;;;5018959;28;20053;-81
2023/12/05 09:54:07;;;;;;;27.60;16.30;;;1.30;99.90;;;;;;5045334;28;20033;-81
2023/12/05 09:56:34;;;;;;;25.40;15.43;;;1.20;99.90;;;;;;5027540;28;20037;-81
2023/12/05 09:59:01;;;;;;;23.67;14.93;;;1.20;99.90;;;;;;5035336;28;20057;-81
2023/12/05 10:01:27;;;;;;;25.33;16.00;;;1.30;99.90;;;;;;5035290;28;20535;-81
2023/12/05 10:03:55;;;;;;;25.02;15.55;;;1.20;99.90;;;;;;5035065;28;20045;-81
2023/12/05 10:06:23;;;;;;;24.05;15.25;;;1.30;99.90;;;;;;5030540;28;20454;-81
2023/12/05 10:08:51;;;;;;;23.50;13.90;;;1.30;99.90;;;;;;5021773;28;20129;-81
2023/12/05 10:11:23;;;;;;;24.20;14.18;;;1.30;99.90;;;;;;5034005;28;20041;-81
2023/12/05 10:13:50;;;;;;;26.75;17.45;;;1.30;99.90;;;;;;5067002;28;20048;-81
2023/12/05 10:16:17;;;;;;;25.33;15.50;;;1.20;99.90;;;;;;5049824;28;20025;-81
2023/12/05 10:18:44;;;;;;;23.73;13.77;;;1.30;99.90;;;;;;5050556;28;20045;-81
2023/12/05 10:21:10;;;;;;;22.00;13.27;;;1.40;99.90;;;;;;5034753;28;20040;-82
2023/12/05 10:23:36;;;;;;;23.17;13.82;;;1.40;99.90;;;;;;5048318;28;20033;-81
2023/12/05 10:26:03;;;;;;;23.38;14.15;;;1.30;99.90;;;;;;5047791;28;20398;-81
2023/12/05 10:28:28;;;;;;;25.55;14.20;;;1.30;99.90;;;;;;5023855;28;20048;-82
2023/12/05 10:30:54;;;;;;;23.35;14.93;;;1.30;99.90;;;;;;5051269;28;20044;-81
2023/12/05 10:33:23;;;;;;;22.08;13.85;;;1.30;99.90;;;;;;5036693;28;20044;-82
2023/12/05 10:35:49;;;;;;;25.05;14.57;;;1.30;99.90;;;;;;5054720;28;20512;-81
2023/12/05 10:38:17;;;;;;;24.33;14.55;;;1.40;99.90;;;;;;5044174;28;20033;-81
2023/12/05 10:40:49;;;;;;;23.60;14.63;;;1.40;99.90;;;;;;5020917;28;20052;-81
2023/12/05 10:43:15;;;;;;;21.45;13.30;;;1.40;99.90;;;;;;5019422;28;20045;-82
2023/12/05 10:45:41;;;;;;;25.30;15.93;;;1.40;99.90;;;;;;5049491;28;20037;-81
2023/12/05 10:48:07;;;;;;;24.27;15.75;;;1.40;99.90;;;;;;5052320;28;20036;-81
2023/12/05 10:50:32;;;;;;;26.13;15.32;;;1.30;99.90;;;;;;5053537;28;20440;-81
2023/12/05 10:52:59;;;;;;;24.45;15.02;;;1.30;99.90;;;;;;5052909;28;20132;-81
2023/12/05 10:55:25;;;;;;;22.63;14.40;;;1.40;99.90;;;;;;5037060;28;20040;-81
2023/12/05 10:57:51;;;;;;;25.92;15.75;;;1.30;99.90;;;;;;5067064;28;20045;-81
2023/12/05 11:00:18;;;;;;;26.63;15.90;;;1.30;99.90;;;;;;5037630;28;20049;-81
2023/12/05 11:02:48;;;;;;;25.88;15.85;;;1.30;99.90;;;;;;5070207;28;20036;-81
2023/12/05 11:05:14;;;;;;;25.60;15.63;;;1.30;99.90;;;;;;5036126;28;20033;-82
2023/12/05 11:07:40;;;;;;;25.30;16.08;;;1.30;99.90;;;;;;5037626;28;20041;-81
2023/12/05 11:10:07;;;;;;;24.30;15.63;;;1.30;99.90;;;;;;5044252;28;20139;-81
2023/12/05 11:12:36;;;;;;;22.33;13.20;;;1.40;99.90;;;;;;5066220;28;20091;-81
2023/12/05 11:15:03;;;;;;;24.58;15.13;;;1.40;99.90;;;;;;5052796;28;20037;-81
2023/12/05 11:17:35;;;;;;;26.60;15.40;;;1.30;99.90;;;;;;5027751;28;20391;-81
2023/12/05 11:20:12;;;;;;;23.95;15.70;;;1.30;99.90;;;;;;5041267;28;20079;-81
2023/12/05 11:22:41;;;;;;;21.85;11.88;;;1.30;99.90;;;;;;5053472;28;20075;-81
2023/12/05 11:25:28;;;;;;;25.52;14.40;;;1.30;99.90;;;;;;5037996;28;20090;-81
2023/12/05 11:28:02;;;;;;;24.73;13.77;;;1.30;99.90;;;;;;5037747;28;20041;-81
2023/12/05 11:30:40;;;;;;;28.40;16.45;;;1.30;99.90;;;;;;5037131;28;20045;-81
2023/12/05 11:33:29;;;;;;;23.02;12.35;;;1.30;99.90;;;;;;5053792;28;20041;-81
2023/12/05 11:36:12;;;;;;;26.23;14.77;;;1.40;99.90;;;;;;5037712;28;20043;-81
2023/12/05 11:38:39;;;;;;;26.27;15.35;;;1.30;99.90;;;;;;5036413;28;20083;-81
2023/12/05 11:41:17;;;;;;;28.38;16.25;;;1.30;99.90;;;;;;5040548;28;20067;-81
2023/12/05 11:44:03;;;;;;;24.58;15.02;;;1.40;99.90;;;;;;5074165;28;20385;-81
2023/12/05 11:46:37;;;;;;;26.65;16.40;;;1.30;99.90;;;;;;5038066;28;20123;-81
2023/12/05 11:49:03;;;;;;;23.48;13.95;;;1.40;99.90;;;;;;5070698;28;20489;-81
2023/12/05 11:51:33;;;;;;;27.27;15.98;;;1.40;99.90;;;;;;5053334;28;20041;-81
2023/12/05 11:54:17;;;;;;;26.73;15.48;;;1.40;99.90;;;;;;5053429;28;20494;-81
2023/12/05 11:56:42;;;;;;;24.98;15.00;;;1.30;99.90;;;;;;5051420;28;20721;-81
2023/12/05 11:59:14;;;;;;;25.95;14.27;;;1.40;99.90;;;;;;5036946;28;20053;-81
2023/12/05 12:01:43;;;;;;;29.30;16.13;;;1.50;99.90;;;;;;5053409;28;20044;-81
2023/12/05 12:04:19;;;;;;;24.85;14.98;;;1.50;99.90;;;;;;5053617;28;20091;-81
2023/12/05 12:06:55;;;;;;;28.02;16.17;;;1.40;99.90;;;;;;5053281;28;20128;-81
2023/12/05 12:09:21;;;;;;;29.77;17.67;;;1.40;99.90;;;;;;5052821;28;20056;-81
2023/12/05 12:11:49;;;;;;;23.77;15.52;;;1.40;99.90;;;;;;5038530;28;20405;-81
2023/12/05 12:14:18;;;;;;;27.08;15.30;;;1.40;99.90;;;;;;5036464;28;20041;-81
2023/12/05 12:16:46;;;;;;;24.85;15.15;;;1.40;99.90;;;;;;5033439;28;20124;-81
2023/12/05 12:19:13;;;;;;;27.90;16.17;;;1.50;99.90;;;;;;5049828;28;20486;-81
2023/12/05 12:21:39;;;;;;;33.47;17.50;;;1.40;99.90;;;;;;5028897;28;20410;-81
2023/12/05 12:24:06;;;;;;;29.98;17.05;;;1.40;99.90;;;;;;5033060;28;20037;-81
2023/12/05 12:26:32;;;;;;;26.40;13.32;;;1.40;99.90;;;;;;5033511;28;20522;-80
2023/12/05 12:29:08;;;;;;;30.88;17.27;;;1.50;99.90;;;;;;5029999;28;20114;-80
2023/12/05 12:31:35;;;;;;;27.27;16.63;;;1.50;99.90;;;;;;5046759;28;20489;-81
2023/12/05 12:34:02;;;;;;;28.38;17.45;;;1.50;99.90;;;;;;5051606;28;20497;-81
2023/12/05 12:36:29;;;;;;;27.58;16.35;;;1.60;99.90;;;;;;5034893;28;20047;-81